sensor_id;sensor_type;location;lat;lon;timestamp;temperature;humidity
5461;DHT22;2753;49.196;8.286;2023-03-23T00:02:29;14.90;87.20
5461;DHT22;2753;49.196;8.286;2023-03-23T00:04:58;14.90;87.20
5461;DHT22;2753;49.196;8.286;2023-03-23T00:07:26;15.00;87.00
5461;DHT22;2753;49.196;8.286;2023-03-23T00:09:53;14.90;86.80
5461;DHT22;2753;49.196;8.286;2023-03-23T00:12:30;14.90;86.90
5461;DHT22;2753;49.196;8.286;2023-03-23T00:15:07;14.90;86.90
5461;DHT22;2753;49.196;8.286;2023-03-23T00:17:34;14.90;86.90
5461;DHT22;2753;49.196;8.286;2023-03-23T00:20:01;14.90;87.00
5461;DHT22;2753;49.196;8.286;2023-03-23T00:22:29;14.90;86.80
5461;DHT22;2753;49.196;8.286;2023-03-23T00:24:55;14.90;86.90
5461;DHT22;2753;49.196;8.286;2023-03-23T00:27:21;14.90;87.80
5461;DHT22;2753;49.196;8.286;2023-03-23T00:29:51;14.80;87.10
5461;DHT22;2753;49.196;8.286;2023-03-23T00:32:22;14.80;87.40
5461;DHT22;2753;49.196;8.286;2023-03-23T00:34:53;14.80;87.60
5461;DHT22;2753;49.196;8.286;2023-03-23T00:37:19;14.80;87.60
5461;DHT22;2753;49.196;8.286;2023-03-23T00:39:44;14.80;87.60
5461;DHT22;2753;49.196;8.286;2023-03-23T00:42:11;14.70;87.50
5461;DHT22;2753;49.196;8.286;2023-03-23T00:44:38;14.70;87.60
5461;DHT22;2753;49.196;8.286;2023-03-23T00:47:05;14.70;87.70
5461;DHT22;2753;49.196;8.286;2023-03-23T00:49:31;14.70;87.60
5461;DHT22;2753;49.196;8.286;2023-03-23T00:52:00;14.70;87.70
5461;DHT22;2753;49.196;8.286;2023-03-23T00:54:26;14.80;87.90
5461;DHT22;2753;49.196;8.286;2023-03-23T00:56:52;14.70;88.00
5461;DHT22;2753;49.196;8.286;2023-03-23T00:59:19;14.70;88.30
5461;DHT22;2753;49.196;8.286;2023-03-23T01:01:45;14.70;88.30
5461;DHT22;2753;49.196;8.286;2023-03-23T01:04:11;14.70;88.40
5461;DHT22;2753;49.196;8.286;2023-03-23T01:06:39;14.70;88.30
5461;DHT22;2753;49.196;8.286;2023-03-23T01:09:06;14.70;88.40
5461;DHT22;2753;49.196;8.286;2023-03-23T01:11:32;14.70;88.50
5461;DHT22;2753;49.196;8.286;2023-03-23T01:13:58;14.70;88.50
5461;DHT22;2753;49.196;8.286;2023-03-23T01:16:24;14.70;88.70
5461;DHT22;2753;49.196;8.286;2023-03-23T01:18:50;14.70;88.70
5461;DHT22;2753;49.196;8.286;2023-03-23T01:21:18;14.60;89.00
5461;DHT22;2753;49.196;8.286;2023-03-23T01:23:45;14.60;89.20
5461;DHT22;2753;49.196;8.286;2023-03-23T01:26:22;14.60;89.30
5461;DHT22;2753;49.196;8.286;2023-03-23T01:28:48;14.60;89.50
5461;DHT22;2753;49.196;8.286;2023-03-23T01:31:16;14.60;89.60
5461;DHT22;2753;49.196;8.286;2023-03-23T01:33:43;14.60;89.70
5461;DHT22;2753;49.196;8.286;2023-03-23T01:36:14;14.60;90.00
5461;DHT22;2753;49.196;8.286;2023-03-23T01:38:45;14.50;89.90
5461;DHT22;2753;49.196;8.286;2023-03-23T01:41:12;14.50;90.00
5461;DHT22;2753;49.196;8.286;2023-03-23T01:43:54;14.50;90.00
5461;DHT22;2753;49.196;8.286;2023-03-23T01:46:20;14.50;90.10
5461;DHT22;2753;49.196;8.286;2023-03-23T01:48:48;14.50;90.00
5461;DHT22;2753;49.196;8.286;2023-03-23T01:51:16;14.50;90.10
5461;DHT22;2753;49.196;8.286;2023-03-23T01:53:59;14.40;90.20
5461;DHT22;2753;49.196;8.286;2023-03-23T01:56:37;14.40;90.30
5461;DHT22;2753;49.196;8.286;2023-03-23T01:59:06;14.40;90.30
5461;DHT22;2753;49.196;8.286;2023-03-23T02:01:32;14.40;90.20
5461;DHT22;2753;49.196;8.286;2023-03-23T02:04:03;14.40;90.30
5461;DHT22;2753;49.196;8.286;2023-03-23T02:06:28;14.50;90.30
5461;DHT22;2753;49.196;8.286;2023-03-23T02:08:54;14.40;90.40
5461;DHT22;2753;49.196;8.286;2023-03-23T02:11:21;14.30;90.50
5461;DHT22;2753;49.196;8.286;2023-03-23T02:13:48;14.30;90.50
5461;DHT22;2753;49.196;8.286;2023-03-23T02:21:50;14.40;90.50
5461;DHT22;2753;49.196;8.286;2023-03-23T02:27:14;14.40;90.40
5461;DHT22;2753;49.196;8.286;2023-03-23T02:36:02;14.40;90.30
5461;DHT22;2753;49.196;8.286;2023-03-23T02:41:06;14.40;90.30
5461;DHT22;2753;49.196;8.286;2023-03-23T02:43:43;14.40;90.40
5461;DHT22;2753;49.196;8.286;2023-03-23T02:46:10;14.40;90.40
5461;DHT22;2753;49.196;8.286;2023-03-23T02:48:38;14.40;90.70
5461;DHT22;2753;49.196;8.286;2023-03-23T02:51:05;14.40;90.70
5461;DHT22;2753;49.196;8.286;2023-03-23T02:53:36;14.40;90.70
5461;DHT22;2753;49.196;8.286;2023-03-23T02:56:03;14.40;90.60
5461;DHT22;2753;49.196;8.286;2023-03-23T02:58:31;14.40;90.70
5461;DHT22;2753;49.196;8.286;2023-03-23T03:00:58;14.40;90.70
5461;DHT22;2753;49.196;8.286;2023-03-23T03:03:27;14.40;90.70
5461;DHT22;2753;49.196;8.286;2023-03-23T03:06:09;14.40;90.80
5461;DHT22;2753;49.196;8.286;2023-03-23T03:08:37;14.40;90.70
5461;DHT22;2753;49.196;8.286;2023-03-23T03:11:16;14.40;90.80
5461;DHT22;2753;49.196;8.286;2023-03-23T03:14:07;14.30;90.80
5461;DHT22;2753;49.196;8.286;2023-03-23T03:19:07;14.30;90.90
5461;DHT22;2753;49.196;8.286;2023-03-23T03:21:36;14.30;90.90
5461;DHT22;2753;49.196;8.286;2023-03-23T03:24:05;14.30;90.90
5461;DHT22;2753;49.196;8.286;2023-03-23T03:26:41;14.30;90.90
5461;DHT22;2753;49.196;8.286;2023-03-23T03:29:11;14.30;91.00
5461;DHT22;2753;49.196;8.286;2023-03-23T03:31:39;14.30;90.90
5461;DHT22;2753;49.196;8.286;2023-03-23T03:34:10;14.30;90.90
5461;DHT22;2753;49.196;8.286;2023-03-23T03:36:36;14.30;91.00
5461;DHT22;2753;49.196;8.286;2023-03-23T03:39:07;14.30;91.00
5461;DHT22;2753;49.196;8.286;2023-03-23T03:41:37;14.20;91.00
5461;DHT22;2753;49.196;8.286;2023-03-23T03:44:05;14.20;91.00
5461;DHT22;2753;49.196;8.286;2023-03-23T03:46:33;14.30;91.00
5461;DHT22;2753;49.196;8.286;2023-03-23T03:49:00;14.30;91.10
5461;DHT22;2753;49.196;8.286;2023-03-23T03:51:27;14.20;91.20
5461;DHT22;2753;49.196;8.286;2023-03-23T03:53:53;14.20;91.20
5461;DHT22;2753;49.196;8.286;2023-03-23T03:56:19;14.20;91.30
5461;DHT22;2753;49.196;8.286;2023-03-23T03:58:45;14.20;91.30
5461;DHT22;2753;49.196;8.286;2023-03-23T04:01:14;14.20;91.30
5461;DHT22;2753;49.196;8.286;2023-03-23T04:03:40;14.20;91.30
5461;DHT22;2753;49.196;8.286;2023-03-23T04:06:07;14.20;91.30
5461;DHT22;2753;49.196;8.286;2023-03-23T04:08:33;14.20;91.40
5461;DHT22;2753;49.196;8.286;2023-03-23T04:10:59;14.20;91.40
5461;DHT22;2753;49.196;8.286;2023-03-23T04:13:25;14.20;91.40
5461;DHT22;2753;49.196;8.286;2023-03-23T04:15:51;14.20;91.40
5461;DHT22;2753;49.196;8.286;2023-03-23T04:18:17;14.20;91.40
5461;DHT22;2753;49.196;8.286;2023-03-23T04:20:47;14.20;91.30
5461;DHT22;2753;49.196;8.286;2023-03-23T04:23:15;14.20;91.40
5461;DHT22;2753;49.196;8.286;2023-03-23T04:25:52;14.20;91.40
5461;DHT22;2753;49.196;8.286;2023-03-23T04:28:23;14.20;91.40
5461;DHT22;2753;49.196;8.286;2023-03-23T04:30:51;14.20;91.40
5461;DHT22;2753;49.196;8.286;2023-03-23T04:33:24;14.20;91.50
5461;DHT22;2753;49.196;8.286;2023-03-23T04:35:56;14.20;91.50
5461;DHT22;2753;49.196;8.286;2023-03-23T04:38:23;14.20;91.50
5461;DHT22;2753;49.196;8.286;2023-03-23T04:40:51;14.20;91.50
5461;DHT22;2753;49.196;8.286;2023-03-23T04:43:21;14.20;91.50
5461;DHT22;2753;49.196;8.286;2023-03-23T04:45:55;14.20;91.50
5461;DHT22;2753;49.196;8.286;2023-03-23T04:48:25;14.20;91.70
5461;DHT22;2753;49.196;8.286;2023-03-23T04:50:52;14.20;91.60
5461;DHT22;2753;49.196;8.286;2023-03-23T04:53:17;14.20;91.80
5461;DHT22;2753;49.196;8.286;2023-03-23T04:55:44;14.30;91.80
5461;DHT22;2753;49.196;8.286;2023-03-23T04:58:11;14.20;91.90
5461;DHT22;2753;49.196;8.286;2023-03-23T05:00:40;14.20;92.10
5461;DHT22;2753;49.196;8.286;2023-03-23T05:03:06;14.20;92.70
5461;DHT22;2753;49.196;8.286;2023-03-23T05:05:34;14.20;92.90
5461;DHT22;2753;49.196;8.286;2023-03-23T05:08:00;14.20;93.10
5461;DHT22;2753;49.196;8.286;2023-03-23T05:10:25;14.10;93.00
5461;DHT22;2753;49.196;8.286;2023-03-23T05:12:53;14.20;92.80
5461;DHT22;2753;49.196;8.286;2023-03-23T05:15:19;14.20;92.40
5461;DHT22;2753;49.196;8.286;2023-03-23T05:17:45;14.20;92.20
5461;DHT22;2753;49.196;8.286;2023-03-23T05:20:15;14.20;92.20
5461;DHT22;2753;49.196;8.286;2023-03-23T05:22:43;14.20;92.10
5461;DHT22;2753;49.196;8.286;2023-03-23T05:25:16;14.20;92.00
5461;DHT22;2753;49.196;8.286;2023-03-23T05:27:45;14.20;92.30
5461;DHT22;2753;49.196;8.286;2023-03-23T05:30:14;14.20;92.40
5461;DHT22;2753;49.196;8.286;2023-03-23T05:32:42;14.10;92.50
5461;DHT22;2753;49.196;8.286;2023-03-23T05:35:08;14.10;92.50
5461;DHT22;2753;49.196;8.286;2023-03-23T05:37:34;14.10;92.70
5461;DHT22;2753;49.196;8.286;2023-03-23T05:40:00;14.10;93.10
5461;DHT22;2753;49.196;8.286;2023-03-23T05:42:35;14.10;92.70
5461;DHT22;2753;49.196;8.286;2023-03-23T05:45:02;14.10;92.70
5461;DHT22;2753;49.196;8.286;2023-03-23T05:47:28;14.10;92.60
5461;DHT22;2753;49.196;8.286;2023-03-23T05:49:54;14.10;92.70
5461;DHT22;2753;49.196;8.286;2023-03-23T05:52:20;14.10;92.60
5461;DHT22;2753;49.196;8.286;2023-03-23T05:54:46;14.10;92.70
5461;DHT22;2753;49.196;8.286;2023-03-23T05:57:12;14.10;92.70
5461;DHT22;2753;49.196;8.286;2023-03-23T05:59:38;14.10;92.80
5461;DHT22;2753;49.196;8.286;2023-03-23T06:02:04;14.10;92.70
5461;DHT22;2753;49.196;8.286;2023-03-23T06:04:30;14.10;92.80
5461;DHT22;2753;49.196;8.286;2023-03-23T06:07:01;14.10;92.80
5461;DHT22;2753;49.196;8.286;2023-03-23T06:09:27;14.10;92.80
5461;DHT22;2753;49.196;8.286;2023-03-23T06:11:53;14.10;92.80
5461;DHT22;2753;49.196;8.286;2023-03-23T06:14:19;14.10;92.80
5461;DHT22;2753;49.196;8.286;2023-03-23T06:16:44;14.10;92.70
5461;DHT22;2753;49.196;8.286;2023-03-23T06:19:10;14.10;92.80
5461;DHT22;2753;49.196;8.286;2023-03-23T06:21:36;14.10;92.70
5461;DHT22;2753;49.196;8.286;2023-03-23T06:24:02;14.10;92.50
5461;DHT22;2753;49.196;8.286;2023-03-23T06:26:47;14.10;92.40
5461;DHT22;2753;49.196;8.286;2023-03-23T06:29:13;14.10;92.40
5461;DHT22;2753;49.196;8.286;2023-03-23T06:31:44;14.20;92.40
5461;DHT22;2753;49.196;8.286;2023-03-23T06:34:10;14.10;92.20
5461;DHT22;2753;49.196;8.286;2023-03-23T06:36:37;14.10;92.40
5461;DHT22;2753;49.196;8.286;2023-03-23T06:39:04;14.10;92.50
5461;DHT22;2753;49.196;8.286;2023-03-23T06:41:31;14.10;92.60
5461;DHT22;2753;49.196;8.286;2023-03-23T06:43:57;14.20;92.70
5461;DHT22;2753;49.196;8.286;2023-03-23T06:46:23;14.20;92.50
5461;DHT22;2753;49.196;8.286;2023-03-23T06:48:49;14.20;92.40
5461;DHT22;2753;49.196;8.286;2023-03-23T06:51:17;14.20;92.40
5461;DHT22;2753;49.196;8.286;2023-03-23T06:53:43;14.20;92.30
5461;DHT22;2753;49.196;8.286;2023-03-23T06:56:09;14.20;92.20
5461;DHT22;2753;49.196;8.286;2023-03-23T06:58:35;14.20;92.30
5461;DHT22;2753;49.196;8.286;2023-03-23T07:01:00;14.20;92.40
5461;DHT22;2753;49.196;8.286;2023-03-23T07:03:26;14.20;92.70
5461;DHT22;2753;49.196;8.286;2023-03-23T07:05:53;14.20;92.80
5461;DHT22;2753;49.196;8.286;2023-03-23T07:08:20;14.20;92.90
5461;DHT22;2753;49.196;8.286;2023-03-23T07:10:47;14.20;93.10
5461;DHT22;2753;49.196;8.286;2023-03-23T07:13:13;14.20;93.20
5461;DHT22;2753;49.196;8.286;2023-03-23T07:15:39;14.20;93.30
5461;DHT22;2753;49.196;8.286;2023-03-23T07:18:05;14.20;93.50
5461;DHT22;2753;49.196;8.286;2023-03-23T07:20:31;14.20;93.60
5461;DHT22;2753;49.196;8.286;2023-03-23T07:22:57;14.20;93.70
5461;DHT22;2753;49.196;8.286;2023-03-23T07:25:23;14.20;93.80
5461;DHT22;2753;49.196;8.286;2023-03-23T07:27:49;14.20;94.00
5461;DHT22;2753;49.196;8.286;2023-03-23T07:30:14;14.20;94.30
5461;DHT22;2753;49.196;8.286;2023-03-23T07:32:41;14.10;94.50
5461;DHT22;2753;49.196;8.286;2023-03-23T07:35:08;14.10;94.80
5461;DHT22;2753;49.196;8.286;2023-03-23T07:37:34;14.10;94.90
5461;DHT22;2753;49.196;8.286;2023-03-23T07:40:01;14.20;94.90
5461;DHT22;2753;49.196;8.286;2023-03-23T07:42:43;14.20;94.90
5461;DHT22;2753;49.196;8.286;2023-03-23T07:45:13;14.20;95.00
5461;DHT22;2753;49.196;8.286;2023-03-23T07:47:39;14.20;95.10
5461;DHT22;2753;49.196;8.286;2023-03-23T07:50:06;14.20;94.90
5461;DHT22;2753;49.196;8.286;2023-03-23T07:52:33;14.30;94.90
5461;DHT22;2753;49.196;8.286;2023-03-23T07:54:59;14.30;94.90
5461;DHT22;2753;49.196;8.286;2023-03-23T07:57:27;14.30;94.90
5461;DHT22;2753;49.196;8.286;2023-03-23T07:59:53;14.40;95.00
5461;DHT22;2753;49.196;8.286;2023-03-23T08:02:19;14.40;94.80
5461;DHT22;2753;49.196;8.286;2023-03-23T08:04:45;14.40;94.80
5461;DHT22;2753;49.196;8.286;2023-03-23T08:07:11;14.40;94.80
5461;DHT22;2753;49.196;8.286;2023-03-23T08:09:38;14.40;94.70
5461;DHT22;2753;49.196;8.286;2023-03-23T08:12:04;14.40;94.70
5461;DHT22;2753;49.196;8.286;2023-03-23T08:14:30;14.40;94.80
5461;DHT22;2753;49.196;8.286;2023-03-23T08:16:56;14.40;94.70
5461;DHT22;2753;49.196;8.286;2023-03-23T08:19:22;14.50;94.60
5461;DHT22;2753;49.196;8.286;2023-03-23T08:21:48;14.60;94.80
5461;DHT22;2753;49.196;8.286;2023-03-23T08:24:14;14.60;94.60
5461;DHT22;2753;49.196;8.286;2023-03-23T08:26:40;14.60;94.60
5461;DHT22;2753;49.196;8.286;2023-03-23T08:29:07;14.70;94.50
5461;DHT22;2753;49.196;8.286;2023-03-23T08:31:34;14.70;94.50
5461;DHT22;2753;49.196;8.286;2023-03-23T08:34:04;14.80;94.30
5461;DHT22;2753;49.196;8.286;2023-03-23T08:36:34;14.80;94.30
5461;DHT22;2753;49.196;8.286;2023-03-23T08:39:00;14.90;94.00
5461;DHT22;2753;49.196;8.286;2023-03-23T08:41:26;14.90;93.90
5461;DHT22;2753;49.196;8.286;2023-03-23T08:43:52;15.00;93.80
5461;DHT22;2753;49.196;8.286;2023-03-23T08:46:18;15.00;93.90
5461;DHT22;2753;49.196;8.286;2023-03-23T08:48:45;15.00;94.00
5461;DHT22;2753;49.196;8.286;2023-03-23T08:51:12;15.00;94.10
5461;DHT22;2753;49.196;8.286;2023-03-23T08:53:37;15.00;94.20
5461;DHT22;2753;49.196;8.286;2023-03-23T08:56:05;15.00;94.30
5461;DHT22;2753;49.196;8.286;2023-03-23T08:58:32;15.00;94.70
5461;DHT22;2753;49.196;8.286;2023-03-23T09:00:58;15.00;95.30
5461;DHT22;2753;49.196;8.286;2023-03-23T09:03:24;15.00;95.50
5461;DHT22;2753;49.196;8.286;2023-03-23T09:05:50;15.00;95.60
5461;DHT22;2753;49.196;8.286;2023-03-23T09:08:15;15.00;96.20
5461;DHT22;2753;49.196;8.286;2023-03-23T09:10:41;14.90;96.40
5461;DHT22;2753;49.196;8.286;2023-03-23T09:13:07;15.00;96.60
5461;DHT22;2753;49.196;8.286;2023-03-23T09:15:33;15.10;96.80
5461;DHT22;2753;49.196;8.286;2023-03-23T09:17:58;15.10;96.70
5461;DHT22;2753;49.196;8.286;2023-03-23T09:20:26;15.10;96.50
5461;DHT22;2753;49.196;8.286;2023-03-23T09:22:54;15.10;96.10
5461;DHT22;2753;49.196;8.286;2023-03-23T09:25:22;15.10;96.30
5461;DHT22;2753;49.196;8.286;2023-03-23T09:27:51;15.10;95.60
5461;DHT22;2753;49.196;8.286;2023-03-23T09:30:19;15.10;95.50
5461;DHT22;2753;49.196;8.286;2023-03-23T09:32:46;15.10;95.50
5461;DHT22;2753;49.196;8.286;2023-03-23T09:35:14;15.10;95.60
5461;DHT22;2753;49.196;8.286;2023-03-23T09:37:42;15.20;95.90
5461;DHT22;2753;49.196;8.286;2023-03-23T09:40:39;15.10;95.60
5461;DHT22;2753;49.196;8.286;2023-03-23T09:48:59;15.20;95.80
5461;DHT22;2753;49.196;8.286;2023-03-23T09:51:46;15.30;95.90
5461;DHT22;2753;49.196;8.286;2023-03-23T09:54:52;15.20;96.00
5461;DHT22;2753;49.196;8.286;2023-03-23T09:57:16;15.20;96.10
5461;DHT22;2753;49.196;8.286;2023-03-23T10:02:38;15.30;96.30
5461;DHT22;2753;49.196;8.286;2023-03-23T10:07:58;15.20;96.30
5461;DHT22;2753;49.196;8.286;2023-03-23T10:10:32;15.10;96.30
5461;DHT22;2753;49.196;8.286;2023-03-23T10:13:09;15.20;96.40
5461;DHT22;2753;49.196;8.286;2023-03-23T10:15:39;15.20;96.40
5461;DHT22;2753;49.196;8.286;2023-03-23T10:20:53;15.20;96.50
5461;DHT22;2753;49.196;8.286;2023-03-23T10:24:03;15.20;96.50
5461;DHT22;2753;49.196;8.286;2023-03-23T10:29:26;15.10;97.10
5461;DHT22;2753;49.196;8.286;2023-03-23T10:31:59;15.00;97.30
5461;DHT22;2753;49.196;8.286;2023-03-23T10:37:25;15.00;97.50
5461;DHT22;2753;49.196;8.286;2023-03-23T10:40:02;15.00;97.60
5461;DHT22;2753;49.196;8.286;2023-03-23T10:42:31;14.90;97.70
5461;DHT22;2753;49.196;8.286;2023-03-23T10:45:01;15.00;98.10
5461;DHT22;2753;49.196;8.286;2023-03-23T10:47:37;15.00;98.20
5461;DHT22;2753;49.196;8.286;2023-03-23T10:50:05;15.00;98.50
5461;DHT22;2753;49.196;8.286;2023-03-23T10:52:37;14.90;98.60
5461;DHT22;2753;49.196;8.286;2023-03-23T10:57:36;14.80;98.90
5461;DHT22;2753;49.196;8.286;2023-03-23T11:05:48;14.80;99.20
5461;DHT22;2753;49.196;8.286;2023-03-23T11:08:34;14.80;99.20
5461;DHT22;2753;49.196;8.286;2023-03-23T11:11:10;14.80;99.40
5461;DHT22;2753;49.196;8.286;2023-03-23T11:13:41;14.90;99.40
5461;DHT22;2753;49.196;8.286;2023-03-23T11:16:09;14.90;98.90
5461;DHT22;2753;49.196;8.286;2023-03-23T11:18:41;14.90;98.70
5461;DHT22;2753;49.196;8.286;2023-03-23T11:21:13;14.90;98.60
5461;DHT22;2753;49.196;8.286;2023-03-23T11:23:42;15.00;98.50
5461;DHT22;2753;49.196;8.286;2023-03-23T11:26:22;14.90;98.30
5461;DHT22;2753;49.196;8.286;2023-03-23T11:31:45;15.00;98.30
5461;DHT22;2753;49.196;8.286;2023-03-23T11:36:48;15.00;98.10
5461;DHT22;2753;49.196;8.286;2023-03-23T11:41:49;15.00;97.70
5461;DHT22;2753;49.196;8.286;2023-03-23T11:44:15;15.00;97.70
5461;DHT22;2753;49.196;8.286;2023-03-23T11:46:46;15.10;97.50
5461;DHT22;2753;49.196;8.286;2023-03-23T11:49:24;15.10;97.50
5461;DHT22;2753;49.196;8.286;2023-03-23T11:52:01;15.00;97.40
5461;DHT22;2753;49.196;8.286;2023-03-23T11:54:39;15.10;97.40
5461;DHT22;2753;49.196;8.286;2023-03-23T11:57:10;15.10;97.60
5461;DHT22;2753;49.196;8.286;2023-03-23T11:59:38;15.20;97.30
5461;DHT22;2753;49.196;8.286;2023-03-23T12:10:58;15.30;97.20
5461;DHT22;2753;49.196;8.286;2023-03-23T12:25:08;15.20;97.00
5461;DHT22;2753;49.196;8.286;2023-03-23T12:27:44;15.20;97.10
5461;DHT22;2753;49.196;8.286;2023-03-23T12:36:03;15.10;96.90
5461;DHT22;2753;49.196;8.286;2023-03-23T12:41:29;15.20;97.00
5461;DHT22;2753;49.196;8.286;2023-03-23T12:44:00;15.20;97.30
5461;DHT22;2753;49.196;8.286;2023-03-23T12:49:32;15.20;97.00
5461;DHT22;2753;49.196;8.286;2023-03-23T12:52:39;15.20;96.80
5461;DHT22;2753;49.196;8.286;2023-03-23T12:55:18;15.20;96.90
5461;DHT22;2753;49.196;8.286;2023-03-23T12:58:09;15.10;96.70
5461;DHT22;2753;49.196;8.286;2023-03-23T13:00:58;15.10;96.90
5461;DHT22;2753;49.196;8.286;2023-03-23T13:03:59;15.10;96.80
5461;DHT22;2753;49.196;8.286;2023-03-23T13:06:45;15.10;96.70
5461;DHT22;2753;49.196;8.286;2023-03-23T13:09:26;15.00;96.60
5461;DHT22;2753;49.196;8.286;2023-03-23T13:11:54;15.00;96.70
5461;DHT22;2753;49.196;8.286;2023-03-23T13:25:00;15.00;96.10
5461;DHT22;2753;49.196;8.286;2023-03-23T13:27:28;15.10;96.10
5461;DHT22;2753;49.196;8.286;2023-03-23T13:29:56;15.10;96.10
5461;DHT22;2753;49.196;8.286;2023-03-23T13:32:36;15.10;95.70
5461;DHT22;2753;49.196;8.286;2023-03-23T13:35:04;15.10;95.60
5461;DHT22;2753;49.196;8.286;2023-03-23T13:37:32;15.10;95.60
5461;DHT22;2753;49.196;8.286;2023-03-23T13:40:16;15.20;95.70
5461;DHT22;2753;49.196;8.286;2023-03-23T13:42:59;15.20;95.70
5461;DHT22;2753;49.196;8.286;2023-03-23T13:51:00;15.30;95.90
5461;DHT22;2753;49.196;8.286;2023-03-23T13:53:42;15.30;95.80
5461;DHT22;2753;49.196;8.286;2023-03-23T13:56:41;15.30;95.90
5461;DHT22;2753;49.196;8.286;2023-03-23T13:59:12;15.30;95.90
5461;DHT22;2753;49.196;8.286;2023-03-23T14:01:39;15.30;95.90
5461;DHT22;2753;49.196;8.286;2023-03-23T14:04:14;15.30;95.90
5461;DHT22;2753;49.196;8.286;2023-03-23T14:06:41;15.30;96.00
5461;DHT22;2753;49.196;8.286;2023-03-23T14:09:27;15.30;96.30
5461;DHT22;2753;49.196;8.286;2023-03-23T14:11:55;15.30;95.90
5461;DHT22;2753;49.196;8.286;2023-03-23T14:14:29;15.30;95.70
5461;DHT22;2753;49.196;8.286;2023-03-23T14:17:28;15.30;95.80
5461;DHT22;2753;49.196;8.286;2023-03-23T14:19:53;15.30;95.80
5461;DHT22;2753;49.196;8.286;2023-03-23T14:22:35;15.40;95.80
5461;DHT22;2753;49.196;8.286;2023-03-23T14:25:18;15.30;95.70
5461;DHT22;2753;49.196;8.286;2023-03-23T14:27:46;15.40;95.70
5461;DHT22;2753;49.196;8.286;2023-03-23T14:30:18;15.30;95.80
5461;DHT22;2753;49.196;8.286;2023-03-23T14:32:44;15.30;95.80
5461;DHT22;2753;49.196;8.286;2023-03-23T14:35:30;15.30;95.80
5461;DHT22;2753;49.196;8.286;2023-03-23T14:37:57;15.30;95.70
5461;DHT22;2753;49.196;8.286;2023-03-23T14:40:26;15.30;95.70
5461;DHT22;2753;49.196;8.286;2023-03-23T14:42:53;15.30;95.60
5461;DHT22;2753;49.196;8.286;2023-03-23T14:45:21;15.30;95.60
5461;DHT22;2753;49.196;8.286;2023-03-23T14:47:58;15.30;95.60
5461;DHT22;2753;49.196;8.286;2023-03-23T14:52:50;15.30;95.60
5461;DHT22;2753;49.196;8.286;2023-03-23T14:55:21;15.30;95.60
5461;DHT22;2753;49.196;8.286;2023-03-23T14:57:48;15.30;95.70
5461;DHT22;2753;49.196;8.286;2023-03-23T15:00:17;15.30;95.80
5461;DHT22;2753;49.196;8.286;2023-03-23T15:02:46;15.30;95.80
5461;DHT22;2753;49.196;8.286;2023-03-23T15:05:14;15.30;95.80
5461;DHT22;2753;49.196;8.286;2023-03-23T15:07:43;15.40;95.90
5461;DHT22;2753;49.196;8.286;2023-03-23T15:10:17;15.30;95.90
5461;DHT22;2753;49.196;8.286;2023-03-23T15:12:45;15.30;95.90
5461;DHT22;2753;49.196;8.286;2023-03-23T15:15:24;15.30;96.10
5461;DHT22;2753;49.196;8.286;2023-03-23T15:17:50;15.30;96.20
5461;DHT22;2753;49.196;8.286;2023-03-23T15:22:51;15.30;96.20
5461;DHT22;2753;49.196;8.286;2023-03-23T15:25:21;15.30;96.10
5461;DHT22;2753;49.196;8.286;2023-03-23T15:27:53;15.30;96.10
5461;DHT22;2753;49.196;8.286;2023-03-23T15:32:49;15.40;96.20
5461;DHT22;2753;49.196;8.286;2023-03-23T15:35:24;15.40;96.20
5461;DHT22;2753;49.196;8.286;2023-03-23T15:37:58;15.40;96.40
5461;DHT22;2753;49.196;8.286;2023-03-23T15:40:25;15.40;95.20
5461;DHT22;2753;49.196;8.286;2023-03-23T15:51:21;15.40;95.30
5461;DHT22;2753;49.196;8.286;2023-03-23T15:53:50;15.40;95.40
5461;DHT22;2753;49.196;8.286;2023-03-23T15:56:16;15.40;95.50
5461;DHT22;2753;49.196;8.286;2023-03-23T15:58:42;15.40;95.70
5461;DHT22;2753;49.196;8.286;2023-03-23T16:03:42;15.40;95.80
5461;DHT22;2753;49.196;8.286;2023-03-23T16:06:11;15.40;95.80
5461;DHT22;2753;49.196;8.286;2023-03-23T16:08:38;15.30;95.80
5461;DHT22;2753;49.196;8.286;2023-03-23T16:11:08;15.30;96.00
5461;DHT22;2753;49.196;8.286;2023-03-23T16:13:34;15.30;96.00
5461;DHT22;2753;49.196;8.286;2023-03-23T16:15:59;15.40;96.20
5461;DHT22;2753;49.196;8.286;2023-03-23T16:18:25;15.40;96.10
5461;DHT22;2753;49.196;8.286;2023-03-23T16:20:50;15.40;96.10
5461;DHT22;2753;49.196;8.286;2023-03-23T16:23:16;15.40;96.10
5461;DHT22;2753;49.196;8.286;2023-03-23T16:25:42;15.40;96.00
5461;DHT22;2753;49.196;8.286;2023-03-23T16:28:11;15.40;96.10
5461;DHT22;2753;49.196;8.286;2023-03-23T16:30:38;15.40;96.20
5461;DHT22;2753;49.196;8.286;2023-03-23T16:33:03;15.40;96.40
5461;DHT22;2753;49.196;8.286;2023-03-23T16:35:29;15.40;96.40
5461;DHT22;2753;49.196;8.286;2023-03-23T16:37:56;15.40;96.40
5461;DHT22;2753;49.196;8.286;2023-03-23T16:40:22;15.40;96.40
5461;DHT22;2753;49.196;8.286;2023-03-23T16:42:48;14.90;96.20
5461;DHT22;2753;49.196;8.286;2023-03-23T16:45:15;15.40;96.50
5461;DHT22;2753;49.196;8.286;2023-03-23T16:47:42;15.40;96.40
5461;DHT22;2753;49.196;8.286;2023-03-23T16:50:10;15.40;96.40
5461;DHT22;2753;49.196;8.286;2023-03-23T16:52:38;15.30;96.50
5461;DHT22;2753;49.196;8.286;2023-03-23T16:55:04;15.30;96.60
5461;DHT22;2753;49.196;8.286;2023-03-23T16:57:32;15.30;96.70
5461;DHT22;2753;49.196;8.286;2023-03-23T16:59:59;15.30;96.60
5461;DHT22;2753;49.196;8.286;2023-03-23T17:02:25;15.30;96.50
5461;DHT22;2753;49.196;8.286;2023-03-23T17:04:51;15.30;96.40
5461;DHT22;2753;49.196;8.286;2023-03-23T17:07:17;15.30;96.40
5461;DHT22;2753;49.196;8.286;2023-03-23T17:09:43;15.30;96.40
5461;DHT22;2753;49.196;8.286;2023-03-23T17:12:09;15.30;96.40
5461;DHT22;2753;49.196;8.286;2023-03-23T17:14:34;15.30;96.40
5461;DHT22;2753;49.196;8.286;2023-03-23T17:17:01;15.30;96.40
5461;DHT22;2753;49.196;8.286;2023-03-23T17:19:27;15.30;96.40
5461;DHT22;2753;49.196;8.286;2023-03-23T17:21:53;15.30;96.40
5461;DHT22;2753;49.196;8.286;2023-03-23T17:24:19;15.30;96.40
5461;DHT22;2753;49.196;8.286;2023-03-23T17:26:44;15.30;96.40
5461;DHT22;2753;49.196;8.286;2023-03-23T17:29:10;15.30;96.50
5461;DHT22;2753;49.196;8.286;2023-03-23T17:31:36;15.30;96.40
5461;DHT22;2753;49.196;8.286;2023-03-23T17:34:01;15.30;96.40
5461;DHT22;2753;49.196;8.286;2023-03-23T17:36:27;15.20;96.30
5461;DHT22;2753;49.196;8.286;2023-03-23T17:38:53;15.20;96.30
5461;DHT22;2753;49.196;8.286;2023-03-23T17:41:18;15.20;96.40
5461;DHT22;2753;49.196;8.286;2023-03-23T17:43:46;15.20;96.40
5461;DHT22;2753;49.196;8.286;2023-03-23T17:46:11;15.20;96.30
5461;DHT22;2753;49.196;8.286;2023-03-23T17:48:37;15.20;96.40
5461;DHT22;2753;49.196;8.286;2023-03-23T17:51:03;15.20;96.30
5461;DHT22;2753;49.196;8.286;2023-03-23T17:53:31;15.10;96.40
5461;DHT22;2753;49.196;8.286;2023-03-23T17:55:57;15.10;96.40
5461;DHT22;2753;49.196;8.286;2023-03-23T17:58:23;15.10;96.40
5461;DHT22;2753;49.196;8.286;2023-03-23T18:00:51;15.10;96.50
5461;DHT22;2753;49.196;8.286;2023-03-23T18:03:17;15.10;96.40
5461;DHT22;2753;49.196;8.286;2023-03-23T18:05:43;15.10;96.40
5461;DHT22;2753;49.196;8.286;2023-03-23T18:08:09;15.10;96.50
5461;DHT22;2753;49.196;8.286;2023-03-23T18:10:37;15.10;96.40
5461;DHT22;2753;49.196;8.286;2023-03-23T18:13:04;15.10;96.50
5461;DHT22;2753;49.196;8.286;2023-03-23T18:15:30;15.10;96.50
5461;DHT22;2753;49.196;8.286;2023-03-23T18:18:00;15.10;96.40
5461;DHT22;2753;49.196;8.286;2023-03-23T18:20:28;15.10;96.50